ETH637 GMMN-LPPR
Flight info
| Callsign | ETH637 |
|---|---|
| Flight time | 1h 17m |
| Altitude | 40000 |
| Route | LAKAM UR722 AMSEL DCT ABLEG |
| Aircraft | A359/H-SDE2E3GHIJ3J4J5LM1ORWXY/LB1D1 |
Departure
| Time | 2026-05-07 17:10 |
|---|---|
| Airport | Mohammed V International Airport (GMMN) |
Arrival
| Time | 2026-05-07 18:27 |
|---|---|
| Airport | Francisco de Sá Carneiro Airport (LPPR) |
| Time | Latitude | Longitude | Altitude | Speed | Heading |
|---|---|---|---|---|---|
| 2026-05-07 16:20 | 33.36118 | -7.57969 | 660 ft | 0 kts | 74° |
| 2026-05-07 16:27 | 33.36122 | -7.57952 | 659 ft | 0 kts | 74° |
| 2026-05-07 16:51 | 33.36119 | -7.57964 | 660 ft | 3 kts | 76° |
| 2026-05-07 16:52 | 33.36115 | -7.57988 | 660 ft | 3 kts | 82° |
| 2026-05-07 16:52 | 33.36113 | -7.58012 | 660 ft | 3 kts | 88° |
| 2026-05-07 16:52 | 33.36113 | -7.58036 | 660 ft | 3 kts | 95° |
| 2026-05-07 16:52 | 33.36115 | -7.58053 | 660 ft | 1 kts | 101° |
| 2026-05-07 16:53 | 33.36115 | -7.58054 | 660 ft | 4 kts | 101° |
| 2026-05-07 16:57 | 33.36113 | -7.58052 | 660 ft | 1 kts | 112° |
| 2026-05-07 16:57 | 33.36101 | -7.58040 | 660 ft | 7 kts | 141° |
| 2026-05-07 16:57 | 33.36040 | -7.58020 | 660 ft | 11 kts | 168° |
| 2026-05-07 16:57 | 33.35946 | -7.57985 | 661 ft | 17 kts | 155° |
| 2026-05-07 16:58 | 33.35815 | -7.57932 | 661 ft | 23 kts | 164° |
| 2026-05-07 16:58 | 33.35668 | -7.57887 | 662 ft | 13 kts | 183° |
| 2026-05-07 16:58 | 33.35610 | -7.57960 | 662 ft | 13 kts | 249° |
| 2026-05-07 16:58 | 33.35552 | -7.58013 | 662 ft | 11 kts | 180° |
| 2026-05-07 16:59 | 33.35470 | -7.57991 | 663 ft | 13 kts | 165° |
| 2026-05-07 16:59 | 33.35374 | -7.57958 | 663 ft | 13 kts | 165° |
| 2026-05-07 16:59 | 33.35369 | -7.57956 | 663 ft | 0 kts | 165° |
| 2026-05-07 16:59 | 33.35339 | -7.57949 | 663 ft | 10 kts | 173° |
| 2026-05-07 17:00 | 33.35293 | -7.57959 | 663 ft | 0 kts | 205° |
| 2026-05-07 17:02 | 33.35272 | -7.57978 | 663 ft | 10 kts | 224° |
| 2026-05-07 17:02 | 33.35259 | -7.58002 | 663 ft | 0 kts | 242° |
| 2026-05-07 17:05 | 33.35252 | -7.58021 | 663 ft | 8 kts | 247° |
| 2026-05-07 17:05 | 33.35240 | -7.58062 | 663 ft | 0 kts | 252° |
| 2026-05-07 17:07 | 33.35235 | -7.58082 | 663 ft | 8 kts | 252° |
| 2026-05-07 17:07 | 33.35216 | -7.58156 | 664 ft | 10 kts | 257° |
| 2026-05-07 17:08 | 33.35217 | -7.58215 | 664 ft | 11 kts | 287° |
| 2026-05-07 17:08 | 33.35266 | -7.58274 | 665 ft | 0 kts | 336° |
| 2026-05-07 17:08 | 33.35267 | -7.58275 | 665 ft | 0 kts | 334° |
| 2026-05-07 17:08 | 33.35273 | -7.58278 | 665 ft | 5 kts | 340° |
| 2026-05-07 17:09 | 33.35279 | -7.58280 | 665 ft | 0 kts | 339° |
| 2026-05-07 17:09 | 33.35283 | -7.58282 | 665 ft | 6 kts | 340° |
| 2026-05-07 17:10 | 33.35612 | -7.58396 | 661 ft | 99 kts | 344° |
| 2026-05-07 17:10 | 33.36557 | -7.58726 | 840 ft | 171 kts | 345° |
| 2026-05-07 17:10 | 33.37765 | -7.59187 | 1744 ft | 187 kts | 343° |
| 2026-05-07 17:10 | 33.38954 | -7.59922 | 2747 ft | 202 kts | 317° |
| 2026-05-07 17:11 | 33.39822 | -7.61296 | 3892 ft | 211 kts | 306° |
| 2026-05-07 17:11 | 33.40687 | -7.62787 | 4973 ft | 228 kts | 304° |
| 2026-05-07 17:11 | 33.41698 | -7.64444 | 5599 ft | 269 kts | 306° |
| 2026-05-07 17:11 | 33.42837 | -7.66222 | 5965 ft | 261 kts | 307° |
| 2026-05-07 17:12 | 33.43945 | -7.67904 | 6341 ft | 256 kts | 307° |
| 2026-05-07 17:12 | 33.45057 | -7.69576 | 6699 ft | 257 kts | 306° |
| 2026-05-07 17:12 | 33.46168 | -7.71247 | 7018 ft | 256 kts | 306° |
| 2026-05-07 17:12 | 33.47392 | -7.72817 | 7368 ft | 259 kts | 314° |
| 2026-05-07 17:13 | 33.48705 | -7.74311 | 7721 ft | 261 kts | 310° |
| 2026-05-07 17:13 | 33.49942 | -7.75917 | 8051 ft | 262 kts | 307° |
| 2026-05-07 17:13 | 33.51104 | -7.77602 | 8412 ft | 262 kts | 304° |
| 2026-05-07 17:13 | 33.52207 | -7.79311 | 8776 ft | 263 kts | 303° |
| 2026-05-07 17:14 | 33.53318 | -7.81098 | 9119 ft | 265 kts | 302° |
| 2026-05-07 17:14 | 33.54391 | -7.82863 | 9486 ft | 266 kts | 301° |
| 2026-05-07 17:14 | 33.55476 | -7.84667 | 9857 ft | 267 kts | 301° |
| 2026-05-07 17:14 | 33.56662 | -7.86403 | 10172 ft | 272 kts | 310° |
| 2026-05-07 17:15 | 33.58186 | -7.87797 | 10507 ft | 279 kts | 327° |
| 2026-05-07 17:15 | 33.60033 | -7.88619 | 10855 ft | 294 kts | 345° |
| 2026-05-07 17:15 | 33.62182 | -7.88735 | 11178 ft | 324 kts | 4° |
| 2026-05-07 17:15 | 33.64488 | -7.88234 | 11502 ft | 350 kts | 11° |
| 2026-05-07 17:16 | 33.66920 | -7.87564 | 11839 ft | 364 kts | 11° |
| 2026-05-07 17:16 | 33.69406 | -7.86877 | 12180 ft | 369 kts | 11° |
| 2026-05-07 17:16 | 33.71915 | -7.86197 | 12545 ft | 370 kts | 11° |
| 2026-05-07 17:16 | 33.74402 | -7.85532 | 12898 ft | 372 kts | 11° |
| 2026-05-07 17:17 | 33.76937 | -7.84860 | 13263 ft | 374 kts | 10° |
| 2026-05-07 17:17 | 33.79492 | -7.84185 | 13625 ft | 376 kts | 10° |
| 2026-05-07 17:17 | 33.82058 | -7.83509 | 13966 ft | 379 kts | 10° |
| 2026-05-07 17:17 | 33.84640 | -7.82830 | 14288 ft | 381 kts | 10° |
| 2026-05-07 17:18 | 33.87237 | -7.82147 | 14622 ft | 383 kts | 9° |
| 2026-05-07 17:18 | 33.89857 | -7.81458 | 14957 ft | 385 kts | 9° |
| 2026-05-07 17:18 | 33.92474 | -7.80769 | 15288 ft | 386 kts | 9° |
| 2026-05-07 17:18 | 33.95108 | -7.80075 | 15626 ft | 388 kts | 9° |
| 2026-05-07 17:19 | 33.97758 | -7.79377 | 15986 ft | 390 kts | 9° |
| 2026-05-07 17:19 | 34.00413 | -7.78678 | 16332 ft | 392 kts | 9° |
| 2026-05-07 17:19 | 34.03083 | -7.77973 | 16684 ft | 393 kts | 9° |
| 2026-05-07 17:19 | 34.05769 | -7.77264 | 17044 ft | 396 kts | 9° |
| 2026-05-07 17:20 | 34.08428 | -7.76562 | 17400 ft | 398 kts | 8° |
| 2026-05-07 17:20 | 34.11142 | -7.75845 | 17763 ft | 400 kts | 8° |
| 2026-05-07 17:20 | 34.13870 | -7.75123 | 18131 ft | 402 kts | 8° |
| 2026-05-07 17:20 | 34.16612 | -7.74413 | 18462 ft | 404 kts | 7° |
| 2026-05-07 17:21 | 34.19392 | -7.73998 | 18789 ft | 401 kts | 357° |
| 2026-05-07 17:21 | 34.22184 | -7.73977 | 19116 ft | 401 kts | 354° |
| 2026-05-07 17:21 | 34.24979 | -7.74115 | 19458 ft | 402 kts | 352° |
| 2026-05-07 17:21 | 34.27783 | -7.74329 | 19787 ft | 404 kts | 351° |
| 2026-05-07 17:22 | 34.30592 | -7.74568 | 20127 ft | 406 kts | 351° |
| 2026-05-07 17:22 | 34.33423 | -7.74806 | 20469 ft | 408 kts | 351° |
| 2026-05-07 17:22 | 34.36267 | -7.75033 | 20809 ft | 411 kts | 351° |
| 2026-05-07 17:22 | 34.39130 | -7.75249 | 21160 ft | 413 kts | 351° |
| 2026-05-07 17:23 | 34.42007 | -7.75456 | 21506 ft | 415 kts | 351° |
| 2026-05-07 17:23 | 34.44903 | -7.75659 | 21869 ft | 418 kts | 351° |
| 2026-05-07 17:23 | 34.47814 | -7.75860 | 22226 ft | 420 kts | 351° |
| 2026-05-07 17:23 | 34.50708 | -7.76060 | 22606 ft | 423 kts | 351° |
| 2026-05-07 17:24 | 34.53652 | -7.76264 | 22976 ft | 425 kts | 351° |
| 2026-05-07 17:24 | 34.56619 | -7.76470 | 23357 ft | 428 kts | 351° |
| 2026-05-07 17:24 | 34.59604 | -7.76678 | 23692 ft | 431 kts | 351° |
| 2026-05-07 17:24 | 34.62610 | -7.76887 | 24009 ft | 433 kts | 351° |
| 2026-05-07 17:25 | 34.65633 | -7.77098 | 24331 ft | 435 kts | 351° |
| 2026-05-07 17:25 | 34.68664 | -7.77309 | 24651 ft | 436 kts | 351° |
| 2026-05-07 17:25 | 34.71704 | -7.77521 | 24981 ft | 438 kts | 351° |
| 2026-05-07 17:25 | 34.74720 | -7.77732 | 25329 ft | 440 kts | 351° |
| 2026-05-07 17:26 | 34.77780 | -7.77958 | 25660 ft | 441 kts | 350° |
| 2026-05-07 17:26 | 34.80846 | -7.78211 | 25993 ft | 443 kts | 350° |
| 2026-05-07 17:26 | 34.83926 | -7.78477 | 26339 ft | 444 kts | 350° |
| 2026-05-07 17:26 | 34.87015 | -7.78747 | 26685 ft | 446 kts | 349° |
| 2026-05-07 17:27 | 34.90119 | -7.79015 | 27039 ft | 448 kts | 350° |
| 2026-05-07 17:27 | 34.93233 | -7.79282 | 27389 ft | 450 kts | 350° |
| 2026-05-07 17:27 | 34.96368 | -7.79547 | 27746 ft | 452 kts | 350° |
| 2026-05-07 17:27 | 34.99510 | -7.79811 | 28112 ft | 454 kts | 350° |
| 2026-05-07 17:28 | 35.02674 | -7.80077 | 28505 ft | 456 kts | 350° |
| 2026-05-07 17:28 | 35.05850 | -7.80343 | 28875 ft | 458 kts | 350° |
| 2026-05-07 17:28 | 35.09001 | -7.80607 | 29254 ft | 460 kts | 350° |
| 2026-05-07 17:28 | 35.12207 | -7.80876 | 29639 ft | 463 kts | 350° |
| 2026-05-07 17:29 | 35.15427 | -7.81147 | 29912 ft | 465 kts | 350° |
| 2026-05-07 17:29 | 35.18671 | -7.81420 | 29952 ft | 466 kts | 350° |
| 2026-05-07 17:29 | 35.25158 | -7.81965 | 30022 ft | 469 kts | 350° |
| 2026-05-07 17:30 | 35.28434 | -7.82243 | 30284 ft | 473 kts | 350° |
| 2026-05-07 17:30 | 35.31724 | -7.82521 | 30787 ft | 474 kts | 350° |
| 2026-05-07 17:30 | 35.35019 | -7.82798 | 31251 ft | 475 kts | 349° |
| 2026-05-07 17:30 | 35.38328 | -7.83078 | 31684 ft | 478 kts | 349° |
| 2026-05-07 17:31 | 35.41653 | -7.83360 | 32091 ft | 480 kts | 349° |
| 2026-05-07 17:31 | 35.44993 | -7.83645 | 32486 ft | 483 kts | 349° |
| 2026-05-07 17:31 | 35.48356 | -7.83946 | 32878 ft | 485 kts | 349° |
| 2026-05-07 17:31 | 35.51730 | -7.84254 | 33246 ft | 488 kts | 348° |
| 2026-05-07 17:32 | 35.55098 | -7.84564 | 33575 ft | 491 kts | 348° |
| 2026-05-07 17:32 | 35.58522 | -7.84878 | 33930 ft | 494 kts | 348° |
| 2026-05-07 17:32 | 35.61962 | -7.85191 | 34243 ft | 496 kts | 348° |
| 2026-05-07 17:32 | 35.65413 | -7.85504 | 34544 ft | 498 kts | 348° |
| 2026-05-07 17:33 | 35.68870 | -7.85815 | 34956 ft | 496 kts | 348° |
| 2026-05-07 17:33 | 35.72303 | -7.86121 | 35396 ft | 494 kts | 348° |
| 2026-05-07 17:33 | 35.75729 | -7.86428 | 35797 ft | 494 kts | 348° |
| 2026-05-07 17:33 | 35.79162 | -7.86739 | 35936 ft | 494 kts | 348° |
| 2026-05-07 17:34 | 35.85961 | -7.87355 | 35942 ft | 492 kts | 348° |
| 2026-05-07 17:34 | 35.92793 | -7.87979 | 35942 ft | 493 kts | 348° |
| 2026-05-07 17:35 | 35.99630 | -7.88624 | 35960 ft | 492 kts | 347° |
| 2026-05-07 17:35 | 36.06457 | -7.89377 | 35938 ft | 493 kts | 347° |
| 2026-05-07 17:36 | 36.13301 | -7.90127 | 35941 ft | 493 kts | 347° |
| 2026-05-07 17:36 | 36.20154 | -7.90874 | 36101 ft | 494 kts | 347° |
| 2026-05-07 17:37 | 36.23527 | -7.91240 | 36471 ft | 493 kts | 347° |
| 2026-05-07 17:37 | 36.26939 | -7.91610 | 36919 ft | 490 kts | 347° |
| 2026-05-07 17:37 | 36.30341 | -7.91979 | 37320 ft | 489 kts | 346° |
| 2026-05-07 17:37 | 36.33722 | -7.92347 | 37704 ft | 487 kts | 346° |
| 2026-05-07 17:38 | 36.37099 | -7.92715 | 38070 ft | 486 kts | 346° |
| 2026-05-07 17:38 | 36.40465 | -7.93083 | 38413 ft | 485 kts | 346° |
| 2026-05-07 17:38 | 36.43823 | -7.93450 | 38715 ft | 484 kts | 346° |
| 2026-05-07 17:38 | 36.47183 | -7.93817 | 38978 ft | 483 kts | 346° |
| 2026-05-07 17:39 | 36.50535 | -7.94184 | 39212 ft | 483 kts | 346° |
| 2026-05-07 17:39 | 36.53843 | -7.94547 | 39427 ft | 484 kts | 346° |
| 2026-05-07 17:39 | 36.57196 | -7.94915 | 39631 ft | 484 kts | 347° |
| 2026-05-07 17:39 | 36.60551 | -7.95284 | 39827 ft | 484 kts | 347° |
| 2026-05-07 17:40 | 36.67289 | -7.96025 | 39924 ft | 486 kts | 347° |
| 2026-05-07 17:40 | 36.74030 | -7.96765 | 39926 ft | 486 kts | 347° |
| 2026-05-07 17:41 | 36.80766 | -7.97508 | 39914 ft | 486 kts | 347° |
| 2026-05-07 17:41 | 36.87504 | -7.98252 | 39912 ft | 486 kts | 347° |
| 2026-05-07 17:42 | 36.94240 | -7.98997 | 39911 ft | 486 kts | 347° |
| 2026-05-07 17:42 | 37.00973 | -7.99743 | 39912 ft | 486 kts | 347° |
| 2026-05-07 17:43 | 37.07681 | -8.00487 | 39912 ft | 486 kts | 347° |
| 2026-05-07 17:43 | 37.14402 | -8.01234 | 39910 ft | 486 kts | 347° |
| 2026-05-07 17:44 | 37.21138 | -8.01985 | 39924 ft | 486 kts | 347° |
| 2026-05-07 17:44 | 37.27872 | -8.02735 | 39907 ft | 485 kts | 347° |
| 2026-05-07 17:45 | 37.34604 | -8.03489 | 39906 ft | 485 kts | 347° |
| 2026-05-07 17:45 | 37.41330 | -8.04242 | 39901 ft | 485 kts | 347° |
| 2026-05-07 17:46 | 37.48064 | -8.04998 | 39910 ft | 485 kts | 347° |
| 2026-05-07 17:46 | 37.54754 | -8.05749 | 39908 ft | 485 kts | 347° |
| 2026-05-07 17:47 | 37.61488 | -8.06508 | 39910 ft | 486 kts | 347° |
| 2026-05-07 17:47 | 37.68240 | -8.07269 | 39922 ft | 486 kts | 347° |
| 2026-05-07 17:48 | 37.74983 | -8.08032 | 39908 ft | 486 kts | 347° |
| 2026-05-07 17:48 | 37.81692 | -8.08791 | 39908 ft | 486 kts | 347° |
| 2026-05-07 17:49 | 37.88434 | -8.09556 | 39909 ft | 486 kts | 347° |
| 2026-05-07 17:49 | 37.95172 | -8.10321 | 39909 ft | 486 kts | 347° |
| 2026-05-07 17:50 | 38.01906 | -8.11088 | 39888 ft | 485 kts | 347° |
| 2026-05-07 17:50 | 38.08633 | -8.11855 | 39888 ft | 485 kts | 347° |
| 2026-05-07 17:51 | 38.15368 | -8.12625 | 39889 ft | 486 kts | 347° |
| 2026-05-07 17:51 | 38.22059 | -8.13391 | 39891 ft | 486 kts | 347° |
| 2026-05-07 17:52 | 38.28798 | -8.14165 | 39895 ft | 486 kts | 347° |
| 2026-05-07 17:52 | 38.35530 | -8.14938 | 39898 ft | 486 kts | 347° |
| 2026-05-07 17:53 | 38.42265 | -8.15713 | 39899 ft | 485 kts | 347° |
| 2026-05-07 17:53 | 38.48998 | -8.16489 | 39901 ft | 485 kts | 347° |
| 2026-05-07 17:54 | 38.54588 | -8.17135 | 39900 ft | 485 kts | 347° |
| 2026-05-07 17:54 | 38.61323 | -8.17915 | 39921 ft | 485 kts | 347° |
| 2026-05-07 17:55 | 38.68052 | -8.18695 | 39892 ft | 485 kts | 347° |
| 2026-05-07 17:55 | 38.74731 | -8.19471 | 39892 ft | 485 kts | 347° |
| 2026-05-07 17:56 | 38.81449 | -8.20253 | 39895 ft | 485 kts | 347° |
| 2026-05-07 17:56 | 38.88170 | -8.21036 | 39897 ft | 484 kts | 347° |
| 2026-05-07 17:57 | 38.94881 | -8.21820 | 39895 ft | 483 kts | 347° |
| 2026-05-07 17:57 | 39.01578 | -8.22604 | 39894 ft | 483 kts | 347° |
| 2026-05-07 17:58 | 39.08291 | -8.23392 | 39905 ft | 483 kts | 347° |
| 2026-05-07 17:58 | 39.14957 | -8.24175 | 39893 ft | 483 kts | 347° |
| 2026-05-07 17:59 | 39.21664 | -8.24965 | 39893 ft | 484 kts | 347° |
| 2026-05-07 17:59 | 39.28369 | -8.25755 | 39894 ft | 484 kts | 347° |
| 2026-05-07 18:00 | 39.35068 | -8.26547 | 39896 ft | 483 kts | 347° |
| 2026-05-07 18:00 | 39.41774 | -8.27341 | 39896 ft | 483 kts | 347° |
| 2026-05-07 18:01 | 39.48435 | -8.28131 | 39894 ft | 483 kts | 347° |
| 2026-05-07 18:01 | 39.55125 | -8.28927 | 39898 ft | 482 kts | 348° |
| 2026-05-07 18:02 | 39.65149 | -8.30121 | 39901 ft | 482 kts | 347° |
| 2026-05-07 18:03 | 39.71820 | -8.30918 | 39903 ft | 481 kts | 347° |
| 2026-05-07 18:03 | 39.75147 | -8.31315 | 39731 ft | 478 kts | 348° |
| 2026-05-07 18:03 | 39.78454 | -8.31709 | 39076 ft | 479 kts | 347° |
| 2026-05-07 18:03 | 39.81783 | -8.32110 | 38388 ft | 480 kts | 347° |
| 2026-05-07 18:04 | 39.85116 | -8.32512 | 37605 ft | 481 kts | 347° |
| 2026-05-07 18:04 | 39.88460 | -8.32914 | 36839 ft | 481 kts | 347° |
| 2026-05-07 18:04 | 39.91794 | -8.33316 | 36103 ft | 481 kts | 347° |
| 2026-05-07 18:04 | 39.95128 | -8.33717 | 35378 ft | 481 kts | 348° |
| 2026-05-07 18:05 | 39.98453 | -8.34117 | 34844 ft | 478 kts | 348° |
| 2026-05-07 18:05 | 40.01751 | -8.34512 | 34314 ft | 474 kts | 349° |
| 2026-05-07 18:05 | 40.05041 | -8.34911 | 33637 ft | 474 kts | 349° |
| 2026-05-07 18:05 | 40.08312 | -8.35306 | 33042 ft | 470 kts | 349° |
| 2026-05-07 18:06 | 40.11557 | -8.35696 | 32495 ft | 466 kts | 349° |
| 2026-05-07 18:06 | 40.14772 | -8.36084 | 31970 ft | 462 kts | 349° |
| 2026-05-07 18:06 | 40.17971 | -8.36472 | 31452 ft | 459 kts | 349° |
| 2026-05-07 18:06 | 40.21098 | -8.36861 | 30913 ft | 455 kts | 349° |
| 2026-05-07 18:07 | 40.24094 | -8.37918 | 30336 ft | 441 kts | 330° |
| 2026-05-07 18:07 | 40.26635 | -8.40033 | 29758 ft | 427 kts | 314° |
| 2026-05-07 18:07 | 40.28615 | -8.42873 | 29122 ft | 419 kts | 305° |
| 2026-05-07 18:07 | 40.30519 | -8.45774 | 28476 ft | 421 kts | 311° |
| 2026-05-07 18:08 | 40.32846 | -8.48136 | 27802 ft | 427 kts | 325° |
| 2026-05-07 18:08 | 40.35554 | -8.49845 | 26858 ft | 438 kts | 335° |
| 2026-05-07 18:08 | 40.38498 | -8.51042 | 25914 ft | 446 kts | 342° |
| 2026-05-07 18:08 | 40.41511 | -8.51907 | 24903 ft | 438 kts | 346° |
| 2026-05-07 18:09 | 40.44467 | -8.52575 | 23828 ft | 434 kts | 348° |
| 2026-05-07 18:09 | 40.47437 | -8.53149 | 22627 ft | 429 kts | 350° |
| 2026-05-07 18:09 | 40.50380 | -8.53667 | 21399 ft | 424 kts | 351° |
| 2026-05-07 18:09 | 40.53286 | -8.54148 | 20215 ft | 418 kts | 351° |
| 2026-05-07 18:10 | 40.56154 | -8.54609 | 19100 ft | 413 kts | 352° |
| 2026-05-07 18:10 | 40.58990 | -8.55058 | 17969 ft | 407 kts | 352° |
| 2026-05-07 18:10 | 40.61786 | -8.55495 | 16678 ft | 403 kts | 352° |
| 2026-05-07 18:10 | 40.64578 | -8.55929 | 15472 ft | 399 kts | 352° |
| 2026-05-07 18:11 | 40.67272 | -8.56346 | 14875 ft | 379 kts | 353° |
| 2026-05-07 18:11 | 40.68970 | -8.56608 | 14616 ft | 363 kts | 353° |
| 2026-05-07 18:11 | 40.72160 | -8.57102 | 14157 ft | 335 kts | 353° |
| 2026-05-07 18:11 | 40.74430 | -8.57453 | 13606 ft | 324 kts | 353° |
| 2026-05-07 18:12 | 40.76652 | -8.57798 | 12822 ft | 320 kts | 353° |
| 2026-05-07 18:12 | 40.78855 | -8.58141 | 12049 ft | 317 kts | 353° |
| 2026-05-07 18:12 | 40.81030 | -8.58479 | 11368 ft | 313 kts | 353° |
| 2026-05-07 18:12 | 40.83193 | -8.58815 | 11001 ft | 313 kts | 353° |
| 2026-05-07 18:13 | 40.85370 | -8.59153 | 10912 ft | 312 kts | 353° |
| 2026-05-07 18:13 | 40.87524 | -8.59487 | 10909 ft | 312 kts | 353° |
| 2026-05-07 18:13 | 40.89685 | -8.59823 | 10908 ft | 312 kts | 353° |
| 2026-05-07 18:13 | 40.91830 | -8.60268 | 10903 ft | 312 kts | 343° |
| 2026-05-07 18:14 | 40.93717 | -8.61539 | 10713 ft | 298 kts | 319° |
| 2026-05-07 18:14 | 40.95026 | -8.63624 | 10117 ft | 296 kts | 293° |
| 2026-05-07 18:14 | 40.95573 | -8.66213 | 9621 ft | 291 kts | 272° |
| 2026-05-07 18:14 | 40.95732 | -8.68865 | 9182 ft | 288 kts | 269° |
| 2026-05-07 18:15 | 40.95829 | -8.71495 | 8773 ft | 284 kts | 269° |
| 2026-05-07 18:15 | 40.95920 | -8.74062 | 8412 ft | 280 kts | 269° |
| 2026-05-07 18:15 | 40.96015 | -8.76624 | 8013 ft | 277 kts | 269° |
| 2026-05-07 18:15 | 40.96111 | -8.79162 | 7593 ft | 275 kts | 269° |
| 2026-05-07 18:16 | 40.96195 | -8.81682 | 7197 ft | 272 kts | 267° |
| 2026-05-07 18:16 | 40.95805 | -8.84053 | 6956 ft | 262 kts | 240° |
| 2026-05-07 18:16 | 40.94638 | -8.85830 | 6912 ft | 257 kts | 213° |
| 2026-05-07 18:16 | 40.92978 | -8.86630 | 6913 ft | 256 kts | 186° |
| 2026-05-07 18:17 | 40.91224 | -8.86270 | 6913 ft | 260 kts | 159° |
| 2026-05-07 18:17 | 40.89781 | -8.84819 | 6914 ft | 267 kts | 132° |
| 2026-05-07 18:17 | 40.88933 | -8.82609 | 6915 ft | 274 kts | 112° |
| 2026-05-07 18:17 | 40.88604 | -8.80107 | 6855 ft | 278 kts | 96° |
| 2026-05-07 18:18 | 40.88691 | -8.77547 | 6426 ft | 281 kts | 87° |
| 2026-05-07 18:18 | 40.89041 | -8.74993 | 5946 ft | 284 kts | 78° |
| 2026-05-07 18:18 | 40.89644 | -8.72507 | 5508 ft | 283 kts | 73° |
| 2026-05-07 18:18 | 40.90280 | -8.70061 | 5112 ft | 281 kts | 72° |
| 2026-05-07 18:19 | 40.90888 | -8.67607 | 4651 ft | 282 kts | 73° |
| 2026-05-07 18:19 | 40.91455 | -8.65139 | 4255 ft | 279 kts | 74° |
| 2026-05-07 18:19 | 40.91998 | -8.62701 | 4024 ft | 275 kts | 74° |
| 2026-05-07 18:19 | 40.92680 | -8.60331 | 3976 ft | 278 kts | 60° |
| 2026-05-07 18:20 | 40.94036 | -8.58583 | 3986 ft | 272 kts | 26° |
| 2026-05-07 18:20 | 40.95840 | -8.58125 | 3992 ft | 265 kts | 351° |
| 2026-05-07 18:20 | 40.97470 | -8.58953 | 3993 ft | 237 kts | 324° |
| 2026-05-07 18:20 | 40.98781 | -8.59997 | 4000 ft | 209 kts | 328° |
| 2026-05-07 18:21 | 41.00001 | -8.60819 | 4025 ft | 185 kts | 333° |
| 2026-05-07 18:21 | 41.01121 | -8.61425 | 4012 ft | 163 kts | 336° |
| 2026-05-07 18:21 | 41.02146 | -8.61886 | 4009 ft | 152 kts | 338° |
| 2026-05-07 18:21 | 41.03151 | -8.62273 | 3997 ft | 148 kts | 341° |
| 2026-05-07 18:22 | 41.04138 | -8.62604 | 3994 ft | 144 kts | 341° |
| 2026-05-07 18:22 | 41.04778 | -8.62803 | 3993 ft | 142 kts | 342° |
| 2026-05-07 18:22 | 41.06060 | -8.63181 | 3850 ft | 138 kts | 343° |
| 2026-05-07 18:22 | 41.07013 | -8.63447 | 3569 ft | 142 kts | 344° |
| 2026-05-07 18:23 | 41.07990 | -8.63713 | 3329 ft | 143 kts | 344° |
| 2026-05-07 18:23 | 41.08957 | -8.63970 | 3065 ft | 142 kts | 344° |
| 2026-05-07 18:23 | 41.09972 | -8.64240 | 2551 ft | 155 kts | 345° |
| 2026-05-07 18:23 | 41.10975 | -8.64499 | 2471 ft | 138 kts | 346° |
| 2026-05-07 18:24 | 41.11875 | -8.64733 | 2489 ft | 132 kts | 346° |
| 2026-05-07 18:24 | 41.12783 | -8.64974 | 2499 ft | 135 kts | 346° |
| 2026-05-07 18:24 | 41.13702 | -8.65214 | 2479 ft | 134 kts | 345° |
| 2026-05-07 18:24 | 41.14613 | -8.65453 | 2478 ft | 133 kts | 344° |
| 2026-05-07 18:25 | 41.15532 | -8.65694 | 2346 ft | 136 kts | 344° |
| 2026-05-07 18:25 | 41.16483 | -8.65947 | 1970 ft | 142 kts | 345° |
| 2026-05-07 18:25 | 41.17464 | -8.66205 | 1588 ft | 146 kts | 345° |
| 2026-05-07 18:25 | 41.18458 | -8.66459 | 1276 ft | 141 kts | 347° |
| 2026-05-07 18:26 | 41.19399 | -8.66684 | 1020 ft | 134 kts | 346° |
| 2026-05-07 18:26 | 41.20284 | -8.66941 | 894 ft | 130 kts | 346° |
| 2026-05-07 18:26 | 41.21166 | -8.67170 | 732 ft | 128 kts | 347° |
| 2026-05-07 18:26 | 41.22038 | -8.67393 | 583 ft | 130 kts | 346° |
| 2026-05-07 18:27 | 41.22914 | -8.67627 | 392 ft | 128 kts | 348° |
| 2026-05-07 18:27 | 41.23778 | -8.67850 | 266 ft | 124 kts | 346° |
| 2026-05-07 18:27 | 41.24460 | -8.68035 | 251 ft | 56 kts | 349° |
| 2026-05-07 18:27 | 41.24666 | -8.68088 | 246 ft | 43 kts | 349° |
| 2026-05-07 18:28 | 41.25028 | -8.68172 | 229 ft | 19 kts | 1° |
| 2026-05-07 18:28 | 41.25093 | -8.68169 | 229 ft | 11 kts | 3° |
| 2026-05-07 18:28 | 41.25174 | -8.68150 | 225 ft | 13 kts | 13° |
| 2026-05-07 18:28 | 41.25271 | -8.68095 | 227 ft | 17 kts | 46° |
| 2026-05-07 18:29 | 41.25276 | -8.68045 | 224 ft | 3 kts | 117° |
| 2026-05-07 18:29 | 41.25254 | -8.68023 | 225 ft | 6 kts | 148° |
| 2026-05-07 18:29 | 41.25191 | -8.67997 | 227 ft | 11 kts | 167° |
| 2026-05-07 18:29 | 41.25112 | -8.67975 | 225 ft | 12 kts | 168° |
| 2026-05-07 18:30 | 41.25036 | -8.67955 | 233 ft | 11 kts | 171° |
| 2026-05-07 18:30 | 41.24958 | -8.67935 | 236 ft | 12 kts | 168° |
| 2026-05-07 18:30 | 41.24869 | -8.67900 | 236 ft | 14 kts | 161° |
| 2026-05-07 18:30 | 41.24780 | -8.67842 | 239 ft | 14 kts | 158° |
| 2026-05-07 18:31 | 41.24680 | -8.67805 | 243 ft | 15 kts | 175° |
| 2026-05-07 18:31 | 41.24577 | -8.67780 | 246 ft | 16 kts | 167° |
| 2026-05-07 18:31 | 41.24466 | -8.67749 | 250 ft | 17 kts | 170° |
| 2026-05-07 18:31 | 41.24335 | -8.67714 | 250 ft | 21 kts | 160° |
| 2026-05-07 18:32 | 41.24224 | -8.67595 | 253 ft | 19 kts | 149° |
| 2026-05-07 18:32 | 41.24099 | -8.67548 | 256 ft | 19 kts | 169° |
| 2026-05-07 18:32 | 41.23963 | -8.67512 | 261 ft | 20 kts | 168° |
| 2026-05-07 18:32 | 41.23825 | -8.67475 | 264 ft | 21 kts | 169° |
| 2026-05-07 18:33 | 41.23673 | -8.67436 | 265 ft | 23 kts | 168° |
| 2026-05-07 18:33 | 41.23538 | -8.67401 | 269 ft | 15 kts | 169° |
| 2026-05-07 18:33 | 41.23432 | -8.67374 | 268 ft | 14 kts | 165° |
| 2026-05-07 18:33 | 41.23416 | -8.67349 | 268 ft | 1 kts | 99° |
| 2026-05-07 18:34 | 41.23417 | -8.67332 | 268 ft | 5 kts | 85° |
| 2026-05-07 18:34 | 41.23431 | -8.67284 | 268 ft | 0 kts | 61° |
| 2026-05-07 18:34 | 41.23433 | -8.67279 | 266 ft | 0 kts | 62° |